Tunnel City, Wisconsin
Current Conditions -  °F | °C
As of 11:55 AM on Tuesday 21 Oct 2014 (Local Time) from KCMY Reporting Station
Scattered Clouds Scattered Clouds  
Wind Chill: 47°   Ceiling: Unl
Heat Index: 49°   Visibility: 10mi
Dew Point: 36°   Wind: 7mph
Humidity: 60%   Direction: 50°NE
Pressure: 30.25"   Gusts: NA
Location:  44.01°N, 90.57°W
Report Text: KCMY 211655Z AUTO 05006KT 10SM SCT022 10/02 A3025 RMK AO2 T00970022
Loading
Personal Weather Stations






























Interactive Weather Map
Tropical Storm Tracking
New forecast layout! Learn more

10-Day Weather Forecast

Advertisements
Track Severe Weather on mobile